Date,TemperatureHighF,TemperatureAvgF,TemperatureLowF,DewpointHighF,DewpointAvgF,DewpointLowF,HumidityHigh,HumidityAvg,HumidityLow,PressureMaxIn,PressureMinIn,WindSpeedMaxMPH,WindSpeedAvgMPH,GustSpeedMaxMPH,PrecipitationSumIn
2013-1-1,48,44,39,41,36,32,93,76,55,30.25,30.20,0,0,0,0.00
2013-1-2,51,45,39,38,35,32,87,69,50,30.22,30.13,0,0,0,0.00
2013-1-3,50,45,40,40,38,34,89,77,67,30.26,30.15,0,0,0,0.00
2013-1-4,51,46,41,40,37,36,86,72,59,30.27,30.17,0,0,0,0.00
2013-1-5,50,47,43,47,44,38,96,90,79,30.24,30.05,0,0,0,0.25
2013-1-6,48,44,42,46,42,41,96,92,80,30.18,30.02,0,0,0,0.12
2013-1-7,54,48,42,50,45,41,96,90,78,30.26,30.15,0,0,0,0.00
2013-1-8,55,50,46,48,45,43,91,84,72,30.23,30.12,0,0,0,0.00
2013-1-9,51,46,42,49,43,37,96,88,79,30.13,30.00,0,0,0,0.01
2013-1-10,47,43,40,37,35,33,83,75,61,30.19,30.07,0,0,0,0.00
2013-1-11,47,43,40,41,36,31,89,77,65,30.25,30.12,0,0,0,0.00
2013-1-12,47,41,38,37,32,25,88,71,45,30.23,30.14,0,0,0,0.00
2013-1-13,44,40,35,35,26,16,79,58,35,30.25,30.18,0,0,0,0.00
2013-1-14,46,41,35,34,22,15,77,48,32,30.39,30.22,0,0,0,0.00
2013-1-15,50,43,38,36,32,26,87,66,42,30.47,30.39,0,0,0,0.00
2013-1-16,51,45,38,37,35,32,88,69,56,30.42,30.24,0,0,0,0.00
2013-1-17,58,50,42,38,33,30,79,56,37,30.25,30.14,0,0,0,0.00
2013-1-18,59,52,46,39,34,28,71,53,35,30.20,30.13,0,0,0,0.00
2013-1-19,58,53,46,36,33,27,65,48,38,30.22,30.14,0,0,0,0.00
2013-1-20,59,53,47,36,33,29,64,48,33,30.20,30.12,0,0,0,0.00
2013-1-21,59,52,45,39,36,30,69,54,43,30.16,30.07,0,0,0,0.00
2013-1-22,58,52,46,41,38,31,76,60,39,30.10,29.99,0,0,0,0.00
2013-1-23,58,52,48,49,43,30,95,75,39,30.07,29.94,0,0,0,0.18
2013-1-24,56,52,48,51,49,47,95,90,80,30.18,30.05,0,0,0,0.00
2013-1-25,60,54,50,53,51,48,95,88,77,30.18,30.04,0,0,0,0.00
2013-1-26,53,48,45,48,45,41,96,87,74,30.08,30.00,0,0,0,0.00
2013-1-27,51,45,42,42,38,34,88,77,59,30.17,30.07,0,0,0,0.00
2013-1-28,52,46,43,44,40,36,92,79,65,30.29,30.16,0,0,0,0.00
2013-1-29,52,48,43,46,42,39,90,82,67,30.35,30.27,0,0,0,0.00
2013-1-30,62,52,46,48,43,40,92,72,48,30.34,30.25,0,0,0,0.00
2013-1-31,58,52,46,47,44,42,85,74,64,30.27,30.17,0,0,0,0.00
2013-2-1,60,53,46,47,45,43,93,75,59,30.21,30.11,0,0,0,0.00
2013-2-2,51,48,45,47,45,43,96,92,86,30.28,30.20,0,0,0,0.00
2013-2-3,54,47,43,46,43,40,95,87,70,30.25,30.15,0,0,0,0.00
2013-2-4,51,46,45,47,45,43,96,93,85,30.17,30.07,0,0,0,0.00
2013-2-5,51,47,45,48,44,40,98,89,82,30.15,30.07,0,0,0,0.00
2013-2-6,52,46,42,45,42,39,95,87,65,30.19,30.13,0,0,0,0.00
2013-2-7,50,45,40,46,42,38,96,91,78,30.17,29.99,0,0,0,0.32
2013-2-8,48,44,39,43,38,27,96,83,47,30.01,29.93,0,0,0,0.23
2013-2-9,54,46,41,40,33,24,85,62,33,30.09,30.00,0,0,0,0.00
2013-2-10,56,46,40,44,39,33,94,77,47,30.11,30.03,0,0,0,0.00
2013-2-11,58,50,44,46,36,27,94,61,30,30.22,30.07,0,0,0,0.00
2013-2-12,57,47,43,46,44,41,96,88,58,30.36,30.22,0,0,0,0.00
2013-2-13,54,47,42,49,44,41,97,92,79,30.34,30.22,0,0,0,0.00
2013-2-14,63,54,44,46,44,42,96,72,47,30.24,30.16,0,0,0,0.00
2013-2-15,66,59,52,44,41,37,71,52,39,30.26,30.19,0,0,0,0.00
2013-2-16,64,54,47,50,45,41,95,73,52,30.21,30.05,0,0,0,0.00
2013-2-17,56,48,43,47,44,41,95,86,68,30.05,29.98,0,0,0,0.00
2013-2-18,50,46,44,44,41,37,95,83,72,30.03,29.96,0,0,0,0.00
2013-2-19,45,42,37,43,38,33,95,86,76,29.96,29.75,0,0,0,0.39
2013-2-20,54,44,37,43,38,32,88,78,58,30.06,29.84,0,0,0,0.00
2013-2-21,54,46,41,42,39,33,93,76,46,30.16,30.05,0,0,0,0.00
2013-2-22,56,48,43,46,42,38,92,82,61,30.25,30.16,0,0,0,0.00
2013-2-23,54,47,43,46,40,30,96,76,53,30.25,30.17,0,0,0,0.02
2013-2-24,58,48,43,42,32,22,92,56,30,30.24,30.17,0,0,0,0.00
2013-2-25,55,47,42,47,43,40,96,86,68,30.26,30.18,0,0,0,0.00
2013-2-26,59,49,43,43,36,24,91,64,26,30.20,30.15,0,0,0,0.00
2013-2-27,60,50,44,49,43,37,95,80,60,30.36,30.20,0,0,0,0.00
2013-2-28,59,50,46,52,48,45,97,92,76,30.45,30.36,0,0,0,0.00
2013-3-1,68,56,48,53,49,47,97,80,55,30.42,30.23,0,0,0,0.00
2013-3-2,66,55,48,53,49,46,94,79,59,30.23,30.07,0,0,0,0.00
2013-3-3,53,49,46,49,46,44,99,91,84,30.10,30.05,0,0,0,0.00
2013-3-4,51,46,42,44,42,40,95,89,78,30.14,30.05,0,0,0,0.00
2013-3-5,54,47,41,45,42,38,94,82,69,30.06,29.82,0,0,0,0.03
2013-3-6,54,48,42,47,44,40,95,87,71,30.06,29.82,0,0,0,0.00
2013-3-7,53,46,42,44,42,38,95,87,61,29.98,29.86,0,0,0,0.00
2013-3-8,53,47,43,46,43,39,95,86,75,30.05,29.83,0,0,0,0.00
2013-3-9,57,48,42,46,43,39,93,82,61,30.30,30.05,0,0,0,0.00
2013-3-10,62,51,46,50,45,42,94,81,55,30.34,30.26,0,0,0,0.00
2013-3-11,69,51,44,50,45,42,95,82,45,30.25,30.11,0,0,0,0.00
2013-3-12,64,50,45,53,47,44,97,89,66,30.15,30.09,0,0,0,0.00
2013-3-13,61,50,44,53,48,43,97,91,69,30.15,30.07,0,0,0,0.00
2013-3-14,53,48,45,50,46,44,97,93,87,30.17,30.08,0,0,0,0.00
2013-3-15,64,50,45,53,47,44,96,90,67,30.14,30.04,0,0,0,0.01
2013-3-16,58,49,46,50,46,45,97,90,73,30.12,30.03,0,0,0,0.00
2013-3-17,61,50,45,48,44,42,91,81,60,30.15,30.06,0,0,0,0.00
2013-3-18,58,48,44,48,45,42,96,87,69,30.13,30.04,0,0,0,0.00
2013-3-19,60,50,45,49,45,42,94,85,56,30.13,30.05,0,0,0,0.09
2013-3-20,56,51,47,52,48,43,96,91,76,30.13,30.05,0,0,0,0.17
2013-3-21,56,47,40,46,43,39,96,85,65,30.13,30.02,0,0,0,0.00
2013-3-22,58,50,45,43,39,28,88,68,38,30.12,30.03,0,0,0,0.00
2013-3-23,65,52,45,44,37,26,90,60,27,30.13,30.06,0,0,0,0.00
2013-3-24,57,48,44,48,44,42,96,87,68,30.09,29.99,0,0,0,0.00
2013-3-25,53,47,44,45,43,42,94,87,73,30.03,29.96,0,0,0,0.00
2013-3-26,55,49,45,48,45,42,93,86,74,30.01,29.95,0,0,0,0.00
2013-3-27,58,51,46,52,49,45,96,92,81,30.01,29.94,0,0,0,0.01
2013-3-28,59,53,50,55,51,49,97,93,84,30.08,29.99,0,0,0,0.03
2013-3-29,70,54,49,55,50,47,96,86,57,30.07,30.02,0,0,0,0.00
2013-3-30,64,54,50,54,51,48,97,89,69,30.07,29.97,0,0,0,0.08
2013-3-31,62,55,50,56,52,49,96,90,77,30.06,29.98,0,0,0,0.11
2013-4-1,57,53,49,54,51,48,97,94,84,30.15,30.03,0,0,0,0.51
2013-4-2,55,50,47,51,48,46,97,95,85,30.19,30.10,0,0,0,0.00
2013-4-3,69,52,46,55,48,46,98,90,47,30.14,30.00,0,0,0,0.00
2013-4-4,59,53,48,56,52,47,97,96,90,30.12,29.98,0,0,0,0.45
2013-4-5,57,53,50,55,52,49,98,95,85,30.19,30.11,0,0,0,0.03
2013-4-6,55,52,50,55,51,49,100,96,94,30.19,30.14,0,0,0,0.05
2013-4-7,57,52,50,55,50,47,97,92,82,30.17,29.84,0,0,0,0.06
2013-4-8,58,50,44,47,42,38,93,75,58,30.02,29.78,0,0,0,0.00
2013-4-9,66,58,52,48,40,32,72,52,34,30.10,30.03,0,0,0,0.00
2013-4-10,71,59,49,52,47,41,95,66,44,30.18,30.06,0,0,0,0.00
2013-4-11,60,50,46,49,46,44,96,86,64,30.06,29.86,0,0,0,0.00
2013-4-12,58,49,45,49,45,43,96,88,73,29.92,29.85,0,0,0,0.00
2013-4-13,58,50,44,49,44,41,95,82,68,29.91,29.84,0,0,0,0.00
2013-4-14,56,48,43,44,41,38,93,77,60,29.94,29.88,0,0,0,0.00
2013-4-15,56,47,42,46,40,37,95,80,62,29.95,29.86,0,0,0,0.01
2013-4-16,59,50,42,43,39,30,83,67,41,30.16,29.96,0,0,0,0.00
2013-4-17,64,55,48,44,36,28,83,50,26,30.27,30.16,0,0,0,0.00
2013-4-18,68,55,46,47,41,31,91,62,29,30.27,30.19,0,0,0,0.00
2013-4-19,66,53,46,52,47,44,94,80,57,30.23,30.08,0,0,0,0.00
2013-4-20,68,53,46,50,46,44,94,79,43,30.10,30.00,0,0,0,0.00
2013-4-21,74,59,46,54,47,37,93,65,41,30.04,29.94,0,0,0,0.00
2013-4-22,82,65,53,50,45,37,81,52,23,29.96,29.85,0,0,0,0.00
2013-4-23,72,58,47,48,40,23,92,58,18,29.94,29.85,0,0,0,0.00
2013-4-24,54,50,46,49,46,44,95,89,82,29.95,29.82,0,0,0,0.00
2013-4-25,59,52,49,51,48,46,94,86,73,30.13,29.95,0,0,0,0.00
2013-4-26,56,50,47,49,46,45,92,86,75,30.23,30.12,0,0,0,0.00
2013-4-27,55,49,46,50,46,45,96,91,80,30.23,30.08,0,0,0,0.00
2013-4-28,64,54,47,51,48,45,94,81,57,30.08,29.89,0,0,0,0.00
2013-4-29,74,60,50,56,50,46,90,71,50,29.91,29.78,0,0,0,0.00
2013-4-30,65,56,47,50,45,31,91,71,28,29.86,29.78,0,0,0,0.00
2013-5-1,72,62,52,50,37,19,86,45,15,30.07,29.85,0,0,0,0.00
2013-5-2,88,69,55,45,36,29,50,32,12,30.14,30.07,0,0,0,0.00
2013-5-3,77,64,54,51,41,25,78,45,23,30.07,29.79,0,0,0,0.00
2013-5-4,66,58,50,52,48,34,92,71,37,29.78,29.57,0,0,0,0.00
2013-5-5,64,57,51,52,48,46,84,73,60,29.80,29.59,0,0,0,0.00
2013-5-6,65,59,54,53,51,49,88,75,57,29.96,29.80,0,0,0,0.00
2013-5-7,65,57,52,56,52,50,94,84,68,30.04,29.95,0,0,0,0.00
2013-5-8,58,52,50,51,49,47,95,89,78,30.14,30.03,0,0,0,0.00
2013-5-9,57,52,49,50,48,46,92,87,76,30.18,30.10,0,0,0,0.00
2013-5-10,56,51,48,51,49,47,96,92,84,30.19,30.12,0,0,0,0.00
2013-5-11,65,52,48,56,49,47,97,90,71,30.16,30.07,0,0,0,0.00
2013-5-12,58,54,50,54,51,49,96,92,84,30.16,30.04,0,0,0,0.00
2013-5-13,58,53,49,54,51,48,97,92,85,30.10,29.96,0,0,0,0.00
2013-5-14,62,54,49,52,49,45,95,84,69,30.00,29.92,0,0,0,0.00
2013-5-15,60,52,47,51,48,45,95,85,69,30.06,29.99,0,0,0,0.00
2013-5-16,59,53,50,55,51,49,97,93,82,30.04,29.97,0,0,0,0.00
2013-5-17,61,53,48,52,49,47,95,86,70,30.08,29.97,0,0,0,0.00
2013-5-18,63,54,47,52,49,45,95,83,62,30.13,30.06,0,0,0,0.00
2013-5-19,66,56,49,52,49,46,93,78,57,30.12,29.99,0,0,0,0.00
2013-5-20,78,60,49,52,48,42,91,67,32,30.01,29.93,0,0,0,0.00
2013-5-21,61,52,46,49,46,41,92,80,63,30.01,29.90,0,0,0,0.00
2013-5-22,60,51,45,44,40,35,85,67,50,30.02,29.91,0,0,0,0.00
2013-5-23,60,51,44,46,44,41,89,77,56,30.01,29.92,0,0,0,0.00
2013-5-24,60,51,44,48,44,42,94,80,61,30.01,29.96,0,0,0,0.00
2013-5-25,58,51,46,48,46,43,94,84,69,30.05,29.95,0,0,0,0.00
2013-5-26,60,53,49,54,51,48,96,90,77,30.14,30.05,0,0,0,0.01
2013-5-27,56,53,50,54,51,48,97,94,90,30.13,30.00,0,0,0,0.16
2013-5-28,59,54,51,58,53,50,98,94,84,30.00,29.93,0,0,0,0.04
2013-5-29,61,54,49,55,51,47,96,89,77,29.98,29.92,0,0,0,0.00
2013-5-30,62,53,46,50,48,45,96,82,64,30.00,29.93,0,0,0,0.00
2013-5-31,69,56,47,52,48,45,93,77,52,30.02,29.93,0,0,0,0.00
2013-6-1,67,56,48,54,49,45,93,77,58,29.94,29.79,0,0,0,0.00
2013-6-2,60,53,48,51,49,47,95,86,71,29.80,29.69,0,0,0,0.00
2013-6-3,66,55,48,54,50,47,95,84,64,29.86,29.72,0,0,0,0.00
2013-6-4,62,54,51,54,50,49,93,87,75,29.96,29.84,0,0,0,0.00
2013-6-5,59,53,50,51,49,48,93,87,75,30.00,29.93,0,0,0,0.00
2013-6-6,61,53,50,52,50,48,96,89,72,29.95,29.87,0,0,0,0.00
2013-6-7,65,55,50,56,51,49,97,88,70,29.89,29.74,0,0,0,0.00
2013-6-8,61,55,50,55,52,48,96,89,79,29.80,29.73,0,0,0,0.00
2013-6-9,58,55,54,55,53,52,96,94,87,29.88,29.80,0,0,0,0.00
2013-6-10,68,57,52,55,52,51,96,85,62,29.95,29.80,0,0,0,0.00
2013-6-11,64,56,51,54,51,48,94,85,70,29.99,29.90,0,0,0,0.00
2013-6-12,64,55,48,52,49,46,95,82,64,30.00,29.90,0,0,0,0.00
2013-6-13,64,55,46,52,48,45,95,80,64,30.10,29.99,0,0,0,0.00
2013-6-14,71,57,49,55,50,47,92,78,54,29.99,29.85,0,0,0,0.00
2013-6-15,55,51,49,50,48,47,94,90,83,30.00,29.83,0,0,0,0.00
2013-6-16,61,53,49,53,49,47,95,88,75,30.10,29.99,0,0,0,0.00
2013-6-17,63,55,50,56,52,48,96,90,77,30.10,30.03,0,0,0,0.00
2013-6-18,60,54,51,53,51,50,96,90,79,30.05,29.99,0,0,0,0.00
2013-6-19,64,56,50,53,50,47,95,81,61,30.06,30.00,0,0,0,0.00
2013-6-20,65,55,48,52,49,46,93,80,63,30.01,29.96,0,0,0,0.00
2013-6-21,64,55,48,53,50,47,95,84,66,30.00,29.93,0,0,0,0.00
2013-6-22,64,56,48,54,51,47,95,83,65,29.94,29.87,0,0,0,0.00
2013-6-23,60,55,52,59,54,51,97,97,95,29.88,29.81,0,0,0,0.10
2013-6-24,56,54,52,56,54,51,98,97,96,29.90,29.79,0,0,0,0.05
2013-6-25,66,60,56,64,60,56,98,96,91,29.98,29.87,0,0,0,0.17
2013-7-13,62,53,53,53,47,-100,93,86,74,29.96,0.00,0,-29,0,0.00
2013-7-14,58,54,51,53,51,49,95,91,83,30.00,29.92,0,0,0,0.00
2013-7-15,59,53,49,54,51,48,97,93,83,29.93,29.85,0,0,0,0.00
2013-7-16,63,56,51,56,53,50,96,92,77,30.02,29.86,0,0,0,0.02
2013-7-17,62,56,53,56,54,51,95,90,80,30.09,30.02,0,0,0,0.00
2013-7-18,60,54,52,55,52,50,96,92,81,30.06,29.95,0,0,0,0.00
2013-7-19,59,53,51,55,52,50,97,93,85,29.95,29.85,0,0,0,0.00
2013-7-20,57,52,50,54,51,49,97,94,86,29.86,29.76,0,0,0,0.00
2013-7-21,59,53,50,54,51,49,97,93,84,29.89,29.77,0,0,0,0.00
2013-7-22,60,56,52,57,54,51,97,94,87,29.96,29.88,0,0,0,0.00
2013-7-23,64,57,54,58,55,52,97,93,79,30.01,29.93,0,0,0,0.00
2013-7-24,63,56,52,57,54,51,97,93,79,29.99,29.92,0,0,0,0.00
2013-7-25,58,54,51,54,52,50,97,94,88,30.03,29.92,0,0,0,0.00
2013-7-26,59,54,52,56,53,51,97,95,87,30.10,30.01,0,0,0,0.00
2013-7-27,59,54,52,56,53,51,97,95,88,30.03,29.87,0,0,0,0.00
2013-7-28,58,54,52,54,52,51,97,94,87,29.88,29.82,0,0,0,0.01
2013-7-29,62,55,52,56,53,51,96,91,79,30.01,29.84,0,0,0,0.00
2013-7-30,58,55,52,54,52,50,95,91,85,30.10,30.01,0,0,0,0.00
2013-7-31,59,54,51,54,52,50,97,92,84,30.09,30.01,0,0,0,0.00
2013-8-1,62,55,52,55,52,51,95,90,78,30.07,29.96,0,0,0,0.00
2013-8-2,62,54,50,55,52,49,97,91,77,29.98,29.92,0,0,0,0.00
2013-8-3,60,54,51,55,52,50,97,92,80,29.97,29.92,0,0,0,0.00
2013-8-4,59,54,51,54,52,50,97,93,80,30.01,29.96,0,0,0,0.00
2013-8-5,57,53,52,55,52,51,97,96,92,30.03,29.98,0,0,0,0.02
2013-8-6,61,57,51,56,54,51,97,90,80,30.04,29.98,0,0,0,0.03
2013-8-7,66,58,54,58,55,53,99,91,76,30.10,30.03,0,0,0,0.02
2013-8-8,63,57,53,58,54,52,97,91,79,30.03,29.94,0,0,0,0.11
2013-8-9,62,56,52,58,54,51,97,93,84,29.97,29.91,0,0,0,0.03
2013-8-10,63,59,55,58,56,54,100,90,81,30.05,30.00,0,0,0,0.01
2013-8-11,58,55,53,55,54,52,97,95,89,30.02,29.95,0,0,0,0.01
2013-8-12,62,55,53,57,54,52,97,94,83,30.00,29.94,0,0,0,0.00
2013-8-13,68,58,53,58,54,52,96,88,70,29.98,29.93,0,0,0,0.00
2013-8-14,64,58,52,60,55,51,96,91,80,29.98,29.91,0,0,0,0.00
2013-8-15,68,61,57,63,59,56,97,94,84,29.97,29.90,0,0,0,0.00
2013-8-16,62,58,55,59,57,54,97,95,89,30.00,29.93,0,0,0,0.00
2013-8-17,64,58,54,59,56,53,97,93,83,29.99,29.86,0,0,0,0.00
2013-8-18,69,60,54,61,57,53,98,87,73,29.88,29.79,0,0,0,0.00
2013-8-19,65,59,54,58,56,53,96,90,78,29.90,29.79,0,0,0,0.00
2013-8-20,69,59,55,60,56,54,97,89,71,29.89,29.83,0,0,0,0.00
2013-8-21,65,59,55,57,55,53,93,87,73,29.94,29.87,0,0,0,0.00
2013-8-22,65,59,56,56,54,53,92,85,72,29.97,29.89,0,0,0,0.00
2013-8-23,59,56,54,55,54,52,94,91,85,29.92,29.82,0,0,0,0.00
2013-8-24,65,58,54,58,56,53,97,91,79,29.90,29.83,0,0,0,0.00
2013-8-25,67,62,58,63,59,57,98,93,83,29.94,29.88,0,0,0,0.01
2013-8-26,65,59,56,59,56,55,96,91,78,30.00,29.90,0,0,0,0.03
2013-8-27,63,58,53,60,56,52,97,94,84,29.90,29.83,0,0,0,0.00
2013-8-28,68,60,56,63,59,55,98,94,84,29.94,29.84,0,0,0,0.01
2013-8-29,67,61,58,63,60,57,98,94,83,30.06,29.94,0,0,0,0.02
2013-8-30,70,61,56,63,58,56,98,91,77,30.04,29.92,0,0,0,0.01
2013-8-31,63,58,54,59,56,54,97,94,87,29.98,29.90,0,0,0,0.00
2013-9-1,64,59,54,60,57,53,97,94,83,29.95,29.90,0,0,0,0.00
2013-9-2,70,63,59,64,60,58,98,92,80,29.96,29.88,0,0,0,0.00
2013-9-3,69,61,57,62,59,56,97,91,76,30.00,29.92,0,0,0,0.00
2013-9-4,68,61,58,61,59,56,97,92,79,30.03,29.94,0,0,0,0.00
2013-9-5,68,60,56,60,57,54,97,90,75,30.02,29.94,0,0,0,0.00
2013-9-6,77,66,54,60,54,49,95,68,44,29.98,29.83,0,0,0,0.00
2013-9-7,82,68,55,62,54,48,95,64,45,29.86,29.80,0,0,0,0.00
2013-9-8,64,57,53,60,55,52,97,93,80,29.86,29.77,0,0,0,0.00
2013-9-9,66,57,52,61,55,51,98,93,78,29.81,29.72,0,0,0,0.00
2013-9-10,69,61,56,61,58,55,98,91,74,29.89,29.73,0,0,0,0.02
2013-9-11,70,61,59,60,55,-100,92,84,72,29.99,29.88,0,-21,0,0.00
2013-9-12,65,60,56,61,58,55,97,94,84,29.97,29.89,0,0,0,0.04
2013-9-13,60,56,54,57,55,53,97,96,89,29.90,29.77,0,0,0,0.02
2013-9-14,60,56,53,57,54,52,100,95,89,29.82,29.75,0,0,0,0.01
2013-9-15,67,59,54,58,56,52,96,88,70,29.87,29.77,0,0,0,0.00
2013-9-16,66,59,55,60,56,54,97,92,78,29.89,29.80,0,0,0,0.00
2013-9-17,65,58,55,57,54,51,97,88,71,29.88,29.82,0,0,0,0.00
2013-9-18,72,59,52,57,52,50,93,79,50,29.91,29.83,0,0,0,0.00
2013-9-19,75,60,52,59,52,48,93,79,55,29.85,29.76,0,0,0,0.00
2013-9-20,66,58,51,62,56,50,97,93,85,29.86,29.76,0,0,0,0.00
2013-9-21,61,58,55,59,57,54,98,96,92,29.89,29.80,0,0,0,0.47
2013-9-22,65,57,52,57,54,51,97,90,73,30.00,29.89,0,0,0,0.00
2013-9-23,74,61,54,60,56,51,95,83,58,30.01,29.94,0,0,0,0.00
2013-9-24,65,57,53,58,54,51,95,89,76,30.00,29.91,0,0,0,0.00
2013-9-25,64,55,51,53,50,47,94,82,67,29.93,29.82,0,0,0,0.00
2013-9-26,66,56,49,49,45,40,85,67,48,29.97,29.83,0,0,0,0.00
2013-9-27,72,61,51,49,42,36,89,51,29,30.09,29.98,0,0,0,0.00
2013-9-28,72,60,51,56,50,42,95,73,41,30.07,30.01,0,0,0,0.00
2013-9-29,70,60,54,61,58,53,97,90,75,30.10,30.05,0,0,0,0.00
2013-9-30,65,60,53,63,58,47,98,94,78,30.06,29.97,0,0,0,0.01
2013-10-1,64,56,51,53,51,48,95,83,62,30.00,29.92,0,0,0,0.00
2013-10-2,64,55,51,53,49,44,94,80,67,30.00,29.92,0,0,0,0.00
2013-10-3,65,57,48,48,42,32,83,61,29,30.07,29.96,0,0,0,0.00
2013-10-4,74,67,61,35,30,25,36,26,16,30.07,29.96,0,0,0,0.00
2013-10-5,79,69,62,39,31,26,42,26,15,30.17,30.07,0,0,0,0.00
2013-10-6,78,68,61,42,34,27,42,29,18,30.09,29.97,0,0,0,0.00
2013-10-7,74,62,51,50,41,30,89,51,26,29.98,29.87,0,0,0,0.00
2013-10-8,65,54,49,53,48,47,93,83,59,29.90,29.71,0,0,0,0.00
2013-10-9,62,53,48,49,47,44,93,79,58,29.76,29.62,0,0,0,0.00
2013-10-10,62,53,49,52,49,46,93,86,69,30.00,29.75,0,0,0,0.00
2013-10-11,56,50,48,50,48,46,98,90,78,30.08,29.98,0,0,0,0.00
2013-10-12,55,50,47,50,48,46,96,91,81,30.00,29.91,0,0,0,0.00
2013-10-13,67,54,48,54,48,40,97,80,45,30.05,29.92,0,0,0,0.00
2013-10-14,72,60,53,50,43,37,85,56,34,30.10,30.00,0,0,0,0.00
2013-10-15,74,64,58,48,37,32,69,38,24,30.02,29.95,0,0,0,0.00
2013-10-16,79,65,58,46,37,31,65,36,21,30.06,29.98,0,0,0,0.00
2013-10-17,77,64,51,49,40,32,90,46,27,30.05,29.96,0,0,0,0.00
2013-10-18,64,52,47,52,48,44,96,86,64,30.04,29.97,0,0,0,0.00
2013-10-19,74,57,48,53,48,43,98,73,41,30.06,30.00,0,0,0,0.00
2013-10-20,61,50,45,53,48,44,97,90,72,30.01,29.92,0,0,0,0.00
2013-10-21,55,49,48,51,48,46,97,93,84,30.00,29.93,0,0,0,0.00
2013-10-22,58,50,48,55,48,46,97,94,82,30.01,29.93,0,0,0,0.00
2013-10-23,58,49,46,53,48,46,98,94,79,29.98,29.92,0,0,0,0.00
2013-10-24,54,50,48,49,48,46,96,92,84,30.10,29.97,0,0,0,0.00
2013-10-25,61,52,47,52,49,46,96,88,71,30.16,30.08,0,0,0,0.00
2013-10-26,68,53,48,56,49,47,98,87,61,30.13,30.02,0,0,0,0.01
2013-10-27,54,50,48,51,48,47,97,93,85,30.03,29.68,0,0,0,0.00
2013-10-28,57,51,47,50,48,45,96,89,79,29.84,29.66,0,0,0,0.00
2013-10-29,59,52,47,51,48,46,96,87,71,30.04,29.84,0,0,0,0.00
2013-10-30,62,51,47,53,47,43,97,87,68,30.14,30.04,0,0,0,0.00
2013-10-31,67,55,49,52,46,41,92,73,56,30.16,30.07,0,0,0,0.00
2013-11-1,68,59,52,50,46,41,85,63,45,30.12,30.00,0,0,0,0.00
2013-11-2,60,52,48,53,48,44,95,85,57,30.01,29.91,0,0,0,0.00
2013-11-3,58,51,47,46,42,37,89,71,50,30.05,29.92,0,0,0,0.00
2013-11-4,59,53,45,44,39,34,84,62,42,30.07,29.91,0,0,0,0.00
2013-11-5,66,59,52,45,36,33,70,43,29,30.20,30.05,0,0,0,0.00
2013-11-6,65,60,54,42,39,35,60,47,41,30.24,30.14,0,0,0,0.00
2013-11-7,69,58,52,51,44,38,94,64,38,30.15,30.06,0,0,0,0.00
2013-11-8,65,54,49,54,49,46,96,85,61,30.07,29.96,0,0,0,0.00
2013-11-9,65,53,47,51,48,45,94,84,58,30.03,29.96,0,0,0,0.00
2013-11-10,59,52,48,52,49,46,96,89,74,30.11,30.01,0,0,0,0.01
2013-11-11,60,54,49,52,49,45,94,84,69,30.15,30.05,0,0,0,0.00
2013-11-12,64,58,53,52,50,46,93,76,62,30.26,30.14,0,0,0,0.00
2013-11-13,67,55,50,56,51,49,96,87,68,30.23,30.10,0,0,0,0.00
2013-11-14,53,50,48,52,49,46,97,95,91,30.10,29.88,0,0,0,0.00
2013-11-15,58,50,46,49,46,44,95,87,67,29.89,29.73,0,0,0,0.01
2013-11-16,57,49,44,50,46,42,96,90,66,29.92,29.75,0,0,0,0.00
2013-11-17,56,50,46,49,47,44,96,89,74,30.08,29.92,0,0,0,0.00
2013-11-18,55,50,45,49,47,43,96,90,76,30.14,30.07,0,0,0,0.01
2013-11-19,52,51,50,49,48,47,91,90,89,30.09,30.06,0,0,0,0.00